Florida City, Florida
Current Conditions -  °F | °C
As of 2:58 AM on Friday 28 Nov 2014 (Local Time) from KHST Reporting Station
Clear Clear  
Wind Chill: 55°   Ceiling: Unl
Heat Index: 55°   Visibility: 10mi
Dew Point: 44°   Wind: 12mph
Humidity: 66%   Direction: 330°NNW
Pressure: 30.16"   Gusts: NA
Location:  25.456°N, 80.4546°W
Report Text: KHST 280758Z AUTO 33010KT 10SM CLR 13/07 A3016 RMK AO2 SLP216 T01260065 $
Loading
Personal Weather Stations






























Interactive Weather Map New forecast layout! Learn more

10-Day Weather Forecast

Advertisements
Track Severe Weather on mobile